100LL.CA
Aviation Fuel Pricing for Canadians
Please upgrade your browser - Tested with IE9, FireFox, Chrome, Safari

Fuel Airports Other Help
Prices Economy Info List METAR/TAF Kneeboard Help

Reference Airport: FORT SMITH, NT
N 60 01 13  W 111 57 43
Provinces to show:

CYSM FORT SMITH, NT
WEATHER
METARCYSM 221500Z 13007KT 080V150 15SM BKN120 BKN140 BKN240 17/13 A2976 RMK ACC5AC2CI1 CI TR VIRGA SLP084 DENSITY ALT 1300FT
TAFTAF AMD CYSM 221437Z 2214/2224 VRB03KT P6SM BKN120 TEMPO 2214/2224 P6SM VCSH BECMG 2219/2221 22008KT RMK NXT FCST BY 221800Z
OTHER SITES

FlightAware

FltPlan

Google Maps

SkyVector
FUEL
FBO 100LL
member
100LL
public
JETA MOGAS
Opr (2019-08-06)2.150
Canada Flight Supplement - CYSM
(opens in new tab/window)


Please Send Updates!

Desktop Version ]  [ Mobile Version ]  [ Disclaimer ]